Time;durP1;ratioP1;P1;durP2;ratioP2;P2;SDS_P1;SDS_P2;PMS_P1;PMS_P2;Temp;Humidity;BMP_temperature;BMP_pressure;BME280_temperature;BME280_humidity;BME280_pressure;Samples;Min_cycle;Max_cycle;Signal;HPM_P1;HPM_P2
2023/04/14 00:00:19;;;;;;;32.95;26.58;;;;;;;12.49;47.95;100139.16;5034056;28;20374;-76
2023/04/14 00:02:44;;;;;;;32.83;28.10;;;;;;;12.54;48.13;100142.03;5032946;28;20390;-76
2023/04/14 00:05:10;;;;;;;31.97;26.67;;;;;;;12.42;48.20;100128.50;5033792;28;20390;-77
2023/04/14 00:07:36;;;;;;;31.80;27.67;;;;;;;12.34;48.49;100127.84;5033832;28;20487;-76
2023/04/14 00:10:02;;;;;;;30.40;25.80;;;;;;;12.31;48.43;100126.38;5033666;28;20462;-76
2023/04/14 00:12:27;;;;;;;22.73;18.42;;;;;;;12.16;48.64;100123.03;5048857;28;20901;-77
2023/04/14 00:14:53;;;;;;;21.97;11.57;;;;;;;12.24;48.50;100125.50;5034169;28;20374;-76
2023/04/14 00:17:18;;;;;;;15.60;4.78;;;;;;;12.24;48.30;100125.50;5033743;28;20383;-76
2023/04/14 00:19:43;;;;;;;14.63;4.70;;;;;;;12.30;48.11;100127.41;5033784;28;20375;-76
2023/04/14 00:22:09;;;;;;;15.70;4.70;;;;;;;12.38;47.81;100121.09;5033702;28;20404;-76
2023/04/14 00:24:42;;;;;;;13.93;4.23;;;;;;;12.41;47.72;100126.84;5033426;28;20723;-77
2023/04/14 00:27:11;;;;;;;15.32;4.35;;;;;;;12.40;47.64;100133.16;5033657;28;20382;-76
2023/04/14 00:29:39;;;;;;;14.48;4.28;;;;;;;12.35;47.80;100132.13;5033565;28;20378;-76
2023/04/14 00:32:05;;;;;;;15.23;4.78;;;;;;;12.26;48.21;100143.94;5033425;28;20803;-76
2023/04/14 00:34:31;;;;;;;11.30;3.97;;;;;;;11.96;49.12;100137.00;5033994;28;20375;-77
2023/04/14 00:36:56;;;;;;;14.30;4.50;;;;;;;12.01;48.95;100147.03;5033445;28;20393;-77
2023/04/14 00:39:22;;;;;;;14.23;4.37;;;;;;;12.01;48.89;100137.25;5033081;28;20463;-76
2023/04/14 00:41:47;;;;;;;10.80;4.30;;;;;;;11.97;49.08;100135.97;5049045;28;20370;-76
2023/04/14 00:44:13;;;;;;;17.97;6.27;;;;;;;11.89;49.21;100133.44;5033469;28;20465;-76
2023/04/14 00:46:40;;;;;;;15.30;6.15;;;;;;;11.82;49.36;100141.34;5033286;28;20392;-76
2023/04/14 00:49:07;;;;;;;17.13;6.35;;;;;;;11.82;49.40;100137.88;5032408;28;20382;-76
2023/04/14 00:51:33;;;;;;;14.25;5.30;;;;;;;11.80;49.26;100139.91;5033293;28;20404;-76
2023/04/14 00:54:01;;;;;;;12.98;4.68;;;;;;;11.81;49.18;100133.56;5048493;28;20464;-76
2023/04/14 00:56:46;;;;;;;15.35;5.75;;;;;;;11.84;48.97;100126.03;5033094;28;20821;-76
2023/04/14 00:59:12;;;;;;;16.30;6.18;;;;;;;11.79;49.15;100122.31;5048709;28;20421;-76
2023/04/14 01:01:39;;;;;;;16.38;6.40;;;;;;;11.85;48.97;100129.53;5033105;28;20395;-76
2023/04/14 01:04:05;;;;;;;12.45;6.63;;;;;;;11.83;48.95;100137.69;5033082;28;20832;-76
2023/04/14 01:06:31;;;;;;;13.05;5.78;;;;;;;11.81;48.95;100129.09;5032361;28;20409;-76
2023/04/14 01:08:58;;;;;;;14.43;5.70;;;;;;;11.77;49.08;100124.34;5032432;28;20411;-77
2023/04/14 01:11:39;;;;;;;13.05;5.38;;;;;;;11.75;48.88;100124.53;5033331;28;20406;-76
2023/04/14 01:14:30;;;;;;;15.20;5.20;;;;;;;11.79;48.89;100127.63;5032996;28;20393;-76
2023/04/14 01:17:00;;;;;;;10.57;4.90;;;;;;;11.82;48.77;100128.06;5033807;28;20724;-76
2023/04/14 01:19:57;;;;;;;15.27;5.57;;;;;;;11.83;48.69;100124.41;5033708;28;20461;-76
2023/04/14 01:22:29;;;;;;;13.10;5.07;;;;;;;11.82;48.75;100128.06;5033286;28;20358;-76
2023/04/14 01:25:27;;;;;;;7.47;4.38;;;;;;;11.76;48.71;100112.09;5033615;28;20688;-76
2023/04/14 01:28:38;;;;;;;14.45;5.00;;;;;;;11.79;48.89;100122.31;5031244;28;20394;-76
2023/04/14 01:31:16;;;;;;;10.85;4.65;;;;;;;11.95;48.56;100132.69;5013759;28;20416;-76
2023/04/14 01:33:44;;;;;;;10.52;4.53;;;;;;;11.93;48.54;100131.25;5013313;28;20395;-77
2023/04/14 01:36:16;;;;;;;12.43;4.67;;;;;;;11.87;48.88;100140.78;5023555;28;20954;-77
2023/04/14 01:38:44;;;;;;;14.88;6.97;;;;;;;11.90;48.83;100131.59;5048740;28;20413;-76
2023/04/14 01:41:13;;;;;;;16.08;8.88;;;;;;;12.00;48.41;100135.59;5033624;28;20448;-77
2023/04/14 01:43:43;;;;;;;9.82;7.40;;;;;;;12.16;48.23;100144.28;5033363;28;20410;-77
2023/04/14 01:46:14;;;;;;;16.10;6.60;;;;;;;12.09;48.23;100130.94;5048868;28;20466;-77
2023/04/14 01:48:44;;;;;;;14.52;6.43;;;;;;;12.07;48.44;100135.63;5034578;28;20370;-77
2023/04/14 01:51:12;;;;;;;12.60;5.65;;;;;;;12.18;48.08;100153.69;5034015;28;20871;-77
2023/04/14 01:53:42;;;;;;;10.02;4.25;;;;;;;12.04;48.61;100136.81;5032510;28;20492;-78
2023/04/14 01:56:10;;;;;;;13.05;5.07;;;;;;;12.04;48.87;100134.16;5032807;28;20835;-78
2023/04/14 01:58:37;;;;;;;11.73;5.67;;;;;;;12.09;48.59;100143.41;5047992;28;20375;-77
2023/04/14 02:01:04;;;;;;;10.98;4.72;;;;;;;12.00;49.04;100146.22;5033104;28;20770;-77
2023/04/14 02:03:31;;;;;;;11.02;3.90;;;;;;;11.99;48.85;100131.31;5032796;28;20448;-78
2023/04/14 02:05:57;;;;;;;11.07;3.60;;;;;;;12.06;48.72;100141.94;5032273;28;20463;-78
2023/04/14 02:08:24;;;;;;;8.43;4.55;;;;;;;12.17;48.45;100145.91;5032413;28;20374;-76
2023/04/14 02:10:53;;;;;;;8.82;4.82;;;;;;;12.14;48.63;100147.13;5032334;28;20471;-78
2023/04/14 02:13:20;;;;;;;10.32;4.47;;;;;;;12.09;48.73;100141.56;5032743;28;20382;-78
2023/04/14 02:15:51;;;;;;;17.90;5.20;;;;;;;12.12;48.56;100137.69;5032914;28;20386;-76
2023/04/14 02:18:18;;;;;;;10.82;4.50;;;;;;;12.00;48.98;100148.84;5039511;28;20475;-76
2023/04/14 02:20:46;;;;;;;9.40;4.35;;;;;;;11.95;49.11;100134.53;5038963;28;20543;-77
2023/04/14 02:23:13;;;;;;;9.45;3.90;;;;;;;12.03;49.01;100137.03;5038253;28;20386;-77
2023/04/14 02:25:48;;;;;;;9.32;4.30;;;;;;;11.95;49.16;100132.69;5051757;28;20387;-77
2023/04/14 02:28:19;;;;;;;10.18;4.35;;;;;;;11.95;49.11;100132.69;5050664;28;20419;-77
2023/04/14 02:30:49;;;;;;;9.13;4.03;;;;;;;11.99;48.90;100133.97;5051490;28;20408;-77
2023/04/14 02:33:20;;;;;;;10.98;4.32;;;;;;;12.02;48.68;100140.69;5051246;28;20381;-77
2023/04/14 02:36:00;;;;;;;10.77;4.47;;;;;;;12.06;48.65;100126.00;5050921;28;20859;-77
2023/04/14 02:38:34;;;;;;;13.60;5.50;;;;;;;12.05;48.55;100121.72;5051382;28;20384;-77
2023/04/14 02:41:16;;;;;;;10.13;4.75;;;;;;;11.97;48.98;100124.53;5054655;28;20369;-77
2023/04/14 02:44:02;;;;;;;12.65;4.43;;;;;;;11.97;48.83;100122.69;5052423;28;20778;-76
2023/04/14 02:46:34;;;;;;;12.00;4.78;;;;;;;12.16;48.56;100125.69;5051009;28;20407;-76
2023/04/14 02:49:02;;;;;;;11.85;4.70;;;;;;;12.20;48.18;100114.44;5050603;28;20411;-76
2023/04/14 02:51:30;;;;;;;12.45;4.13;;;;;;;12.08;48.29;100113.34;5050285;28;20927;-76
2023/04/14 02:53:56;;;;;;;11.57;4.80;;;;;;;12.11;48.39;100126.25;5050718;28;20404;-77
2023/04/14 02:56:23;;;;;;;15.57;4.68;;;;;;;12.12;48.47;100109.31;5050949;28;20412;-77
2023/04/14 02:58:49;;;;;;;14.25;5.10;;;;;;;12.05;48.51;100113.75;5050853;28;20829;-77
2023/04/14 03:01:17;;;;;;;12.13;4.80;;;;;;;12.05;48.46;100125.19;5050702;28;20852;-77
2023/04/14 03:03:43;;;;;;;12.60;5.28;;;;;;;12.07;48.39;100113.56;5049491;28;20450;-77
2023/04/14 03:06:10;;;;;;;9.00;4.50;;;;;;;12.07;48.45;100111.72;5050920;28;20376;-77
2023/04/14 03:08:37;;;;;;;11.43;5.10;;;;;;;12.10;48.40;100108.69;5049776;28;20540;-76
2023/04/14 03:11:04;;;;;;;10.02;5.13;;;;;;;11.96;48.66;100107.78;5050712;28;20411;-76
2023/04/14 03:13:32;;;;;;;10.73;5.20;;;;;;;11.93;48.76;100099.38;5051062;28;20392;-77
2023/04/14 03:15:58;;;;;;;8.68;4.43;;;;;;;11.88;48.82;100102.56;5051107;28;20437;-77
2023/04/14 03:18:26;;;;;;;9.43;4.65;;;;;;;11.91;49.06;100104.06;5050597;28;20389;-75
2023/04/14 03:20:54;;;;;;;11.07;4.43;;;;;;;11.84;49.00;100091.50;5050195;28;20392;-77
2023/04/14 03:23:23;;;;;;;7.90;4.45;;;;;;;11.72;49.37;100085.09;5054548;28;20409;-76
2023/04/14 03:25:50;;;;;;;9.43;4.60;;;;;;;11.67;49.41;100077.72;5050408;28;20373;-76
2023/04/14 03:28:19;;;;;;;12.07;4.50;;;;;;;11.70;49.45;100067.72;5050597;28;20427;-76
2023/04/14 03:30:48;;;;;;;11.52;4.75;;;;;;;11.73;49.32;100057.53;5052127;28;20400;-75
2023/04/14 03:33:18;;;;;;;9.15;4.40;;;;;;;11.71;49.58;100048.13;5054442;28;20388;-75
2023/04/14 03:35:45;;;;;;;12.32;4.88;;;;;;;11.63;49.71;100039.28;5054947;28;20377;-75
2023/04/14 03:38:13;;;;;;;16.52;5.55;;;;;;;11.66;49.78;100051.34;5054558;28;20381;-76
2023/04/14 03:40:45;;;;;;;11.88;4.97;;;;;;;11.52;50.13;100044.31;5059519;28;20377;-76
2023/04/14 03:43:13;;;;;;;12.30;4.88;;;;;;;11.49;50.54;100042.88;5056773;28;20765;-76
2023/04/14 03:45:39;;;;;;;14.02;5.32;;;;;;;11.51;50.32;100040.84;5054477;28;20400;-75
2023/04/14 03:48:07;;;;;;;10.00;5.15;;;;;;;11.53;50.53;100022.88;5054398;28;20377;-76
2023/04/14 03:50:39;;;;;;;20.33;6.25;;;;;;;11.52;50.57;100039.00;5054386;28;20418;-77
2023/04/14 03:53:07;;;;;;;8.70;5.35;;;;;;;11.48;50.58;100034.06;5053191;28;20888;-76
2023/04/14 03:55:35;;;;;;;8.68;4.80;;;;;;;11.52;50.37;100034.50;5053467;28;20383;-77
2023/04/14 03:58:02;;;;;;;12.60;5.28;;;;;;;11.51;50.57;100032.88;5054763;28;20372;-77
2023/04/14 04:00:29;;;;;;;11.68;4.95;;;;;;;11.44;50.79;100022.19;5049796;28;20396;-76
2023/04/14 04:02:56;;;;;;;15.32;5.05;;;;;;;11.52;50.63;100025.72;5034192;28;20394;-76
2023/04/14 04:05:22;;;;;;;9.13;4.68;;;;;;;11.52;50.67;100004.50;5033413;28;20378;-76
2023/04/14 04:07:51;;;;;;;7.50;4.60;;;;;;;11.56;50.67;100019.00;5034203;28;20400;-77
2023/04/14 04:10:19;;;;;;;11.43;4.70;;;;;;;11.73;50.29;100033.63;5049614;28;20371;-76
2023/04/14 04:12:46;;;;;;;9.73;4.83;;;;;;;11.91;49.71;100033.16;5033389;28;20392;-76
2023/04/14 04:15:12;;;;;;;11.15;5.30;;;;;;;12.11;49.28;100037.78;5034303;28;20405;-77
2023/04/14 04:17:40;;;;;;;12.45;5.07;;;;;;;12.03;49.39;100022.81;5034484;28;20711;-76
2023/04/14 04:20:10;;;;;;;8.43;4.60;;;;;;;11.95;49.74;100034.41;5034219;28;20397;-76
2023/04/14 04:22:39;;;;;;;9.55;4.70;;;;;;;11.95;49.73;100046.88;5034622;28;20382;-76
2023/04/14 04:25:06;;;;;;;11.73;5.07;;;;;;;12.04;49.30;100048.34;5033992;28;20855;-76
2023/04/14 04:27:32;;;;;;;13.57;5.35;;;;;;;12.18;49.15;100049.25;5033147;28;20394;-76
2023/04/14 04:29:58;;;;;;;13.05;5.03;;;;;;;12.13;49.40;100046.34;5033712;28;20512;-79
2023/04/14 04:32:24;;;;;;;9.38;4.95;;;;;;;12.16;49.20;100046.78;5033886;28;20417;-76
2023/04/14 04:34:51;;;;;;;9.38;4.78;;;;;;;12.31;48.79;100043.19;5034365;28;21002;-77
2023/04/14 04:37:18;;;;;;;10.13;4.70;;;;;;;12.29;49.06;100056.66;5033730;28;20507;-77
2023/04/14 04:39:44;;;;;;;10.63;5.35;;;;;;;12.32;48.88;100052.81;5034009;28;20406;-77
2023/04/14 04:42:09;;;;;;;10.73;5.43;;;;;;;12.33;48.87;100065.88;5031369;28;20406;-78
2023/04/14 04:44:35;;;;;;;11.03;5.20;;;;;;;12.40;48.63;100072.03;5033339;28;20456;-77
2023/04/14 04:47:01;;;;;;;11.27;5.45;;;;;;;12.48;48.58;100075.53;5033688;28;20370;-76
2023/04/14 04:49:27;;;;;;;9.10;5.15;;;;;;;12.61;48.12;100078.28;5033862;28;20382;-77
2023/04/14 04:51:52;;;;;;;12.25;5.93;;;;;;;12.73;47.90;100076.69;5033481;28;20858;-76
2023/04/14 04:54:18;;;;;;;15.13;5.30;;;;;;;12.76;47.71;100070.13;5033483;28;20413;-77
2023/04/14 04:56:44;;;;;;;9.18;5.18;;;;;;;12.75;47.83;100069.31;5049137;28;20732;-77
2023/04/14 04:59:10;;;;;;;7.80;4.68;;;;;;;12.83;47.78;100070.97;5033707;28;20429;-77
2023/04/14 05:01:35;;;;;;;8.18;4.30;;;;;;;12.82;47.95;100054.19;5033429;28;20374;-77
2023/04/14 05:04:01;;;;;;;10.68;5.28;;;;;;;12.71;47.98;100059.25;5033577;28;20378;-77
2023/04/14 05:06:27;;;;;;;7.40;4.60;;;;;;;12.69;48.09;100048.81;5033303;28;20374;-77
2023/04/14 05:08:53;;;;;;;11.77;5.68;;;;;;;12.73;48.18;100051.91;5033334;28;20382;-76
2023/04/14 05:11:18;;;;;;;11.00;5.07;;;;;;;12.73;47.98;100052.75;5034742;28;20479;-77
2023/04/14 05:13:44;;;;;;;9.55;5.18;;;;;;;12.70;48.21;100034.53;5036590;28;20386;-78
2023/04/14 05:16:12;;;;;;;13.20;5.47;;;;;;;12.69;48.31;100042.69;5033185;28;20406;-77
2023/04/14 05:18:38;;;;;;;10.52;5.82;;;;;;;12.76;48.35;100048.84;5033798;28;20382;-78
2023/04/14 05:21:05;;;;;;;11.43;5.75;;;;;;;12.88;47.94;100038.47;5033307;28;20461;-76
2023/04/14 05:23:36;;;;;;;12.57;5.72;;;;;;;12.96;47.64;100041.75;5033553;28;20449;-77
2023/04/14 05:26:02;;;;;;;14.68;6.60;;;;;;;12.78;48.52;100041.50;5032927;28;20385;-77
2023/04/14 05:28:28;;;;;;;12.27;6.13;;;;;;;12.58;48.99;100022.81;5032672;28;20386;-77
2023/04/14 05:30:53;;;;;;;9.05;5.43;;;;;;;12.60;49.22;100036.72;5035812;28;20406;-77
2023/04/14 05:33:19;;;;;;;13.47;5.80;;;;;;;12.53;49.14;100041.22;5033156;28;20804;-77
2023/04/14 05:35:45;;;;;;;19.23;6.33;;;;;;;12.69;48.88;100048.00;5033559;28;20382;-76
2023/04/14 05:38:14;;;;;;;11.90;5.47;;;;;;;12.74;48.85;100050.91;5033437;28;20429;-77
2023/04/14 05:40:40;;;;;;;9.32;5.45;;;;;;;12.75;48.76;100044.56;5032889;28;20366;-77
2023/04/14 05:43:06;;;;;;;12.18;5.55;;;;;;;12.84;48.48;100053.16;5048104;28;20381;-77
2023/04/14 05:45:31;;;;;;;9.70;5.53;;;;;;;12.85;48.53;100049.50;5033059;28;20378;-76
2023/04/14 05:47:57;;;;;;;19.23;9.45;;;;;;;12.96;48.18;100064.84;5032462;28;20374;-77
2023/04/14 05:50:22;;;;;;;10.57;6.90;;;;;;;13.00;48.22;100060.78;5032858;28;20481;-75
2023/04/14 05:52:49;;;;;;;11.43;6.53;;;;;;;12.87;48.55;100045.59;5032054;28;20426;-77
2023/04/14 05:55:15;;;;;;;12.50;7.55;;;;;;;12.97;48.20;100050.53;5033346;28;20406;-77
2023/04/14 05:57:40;;;;;;;18.92;6.95;;;;;;;12.95;47.99;100045.44;5032041;28;20393;-77
2023/04/14 06:00:07;;;;;;;13.03;6.53;;;;;;;12.98;48.08;100042.38;5031992;28;20846;-77
2023/04/14 06:02:32;;;;;;;14.23;7.07;;;;;;;12.96;48.06;100043.56;5032496;28;20379;-78
2023/04/14 06:05:01;;;;;;;13.23;6.57;;;;;;;12.96;48.32;100035.59;5031939;28;20532;-76
2023/04/14 06:07:27;;;;;;;12.93;6.55;;;;;;;12.93;48.30;100026.19;5048041;28;20392;-77
2023/04/14 06:09:53;;;;;;;16.77;7.30;;;;;;;13.03;48.30;100031.09;5037198;28;20466;-76
2023/04/14 06:12:19;;;;;;;14.43;6.60;;;;;;;13.07;48.17;100018.22;5040794;28;20468;-77
2023/04/14 06:14:45;;;;;;;12.68;7.07;;;;;;;13.17;48.20;100006.16;5041803;28;20414;-77
2023/04/14 06:17:11;;;;;;;13.15;6.70;;;;;;;13.05;48.33;100006.97;5038465;28;20401;-78
2023/04/14 06:19:36;;;;;;;13.23;6.83;;;;;;;12.89;48.88;100001.03;5031516;28;20844;-77
2023/04/14 06:22:02;;;;;;;11.93;6.07;;;;;;;12.84;49.14;99990.16;5031483;28;20378;-78
2023/04/14 06:24:27;;;;;;;13.83;6.70;;;;;;;12.68;49.87;99982.56;5047738;28;20374;-77
2023/04/14 06:26:53;;;;;;;13.50;6.30;;;;;;;12.48;50.34;99974.53;5031779;28;20409;-77
2023/04/14 06:29:18;;;;;;;10.20;5.70;;;;;;;12.56;49.83;99969.03;5048092;28;20370;-77
2023/04/14 06:31:44;;;;;;;14.20;6.70;;;;;;;12.63;49.82;99976.00;5032003;28;20417;-76
2023/04/14 06:34:09;;;;;;;13.10;6.37;;;;;;;12.62;50.09;99979.69;5032476;28;20386;-76
2023/04/14 06:36:35;;;;;;;11.87;6.33;;;;;;;12.73;49.87;99980.94;5031536;28;20862;-77
2023/04/14 06:39:03;;;;;;;11.25;5.78;;;;;;;12.76;49.89;99969.06;5047207;28;20401;-76
2023/04/14 06:41:29;;;;;;;13.85;5.57;;;;;;;12.86;49.94;99960.72;5031176;28;20393;-75
2023/04/14 06:43:54;;;;;;;9.80;5.68;;;;;;;12.86;49.84;99958.88;5031983;28;20371;-78
2023/04/14 06:46:20;;;;;;;8.37;5.30;;;;;;;12.86;49.82;99958.88;5031402;28;20398;-76
2023/04/14 06:48:45;;;;;;;9.50;5.27;;;;;;;12.81;49.94;99940.03;5031821;28;20795;-77
2023/04/14 06:51:12;;;;;;;11.83;6.00;;;;;;;12.82;50.14;99923.88;5031465;28;20890;-76
2023/04/14 06:53:39;;;;;;;13.15;6.15;;;;;;;12.71;50.36;99924.50;5032859;28;20421;-78
2023/04/14 06:56:08;;;;;;;14.25;6.18;;;;;;;12.61;50.70;99946.13;5032684;28;20542;-77
2023/04/14 06:58:33;;;;;;;14.57;6.10;;;;;;;12.76;50.40;99948.59;5032674;28;20401;-76
2023/04/14 07:01:01;;;;;;;12.98;6.03;;;;;;;12.80;50.48;99952.53;5032931;28;20397;-76
2023/04/14 07:03:29;;;;;;;15.50;6.53;;;;;;;12.92;50.10;99966.00;5050894;28;20386;-76
2023/04/14 07:06:01;;;;;;;14.52;6.53;;;;;;;12.99;49.98;99964.19;5030745;28;20397;-76
2023/04/14 07:08:30;;;;;;;16.53;6.57;;;;;;;13.11;49.79;99956.41;5032097;28;20405;-76
2023/04/14 07:10:59;;;;;;;14.25;6.68;;;;;;;13.27;49.63;99967.66;5031224;28;20504;-76
2023/04/14 07:13:25;;;;;;;10.82;6.15;;;;;;;13.31;49.50;99971.59;5033071;28;20739;-76
2023/04/14 07:15:50;;;;;;;8.95;5.90;;;;;;;13.31;49.25;99958.28;5032618;28;20378;-77
2023/04/14 07:18:16;;;;;;;8.73;5.90;;;;;;;13.38;49.02;99967.88;5042484;28;20382;-79
2023/04/14 07:20:41;;;;;;;14.32;6.85;;;;;;;13.40;49.28;99949.06;5035727;28;20382;-77
2023/04/14 07:23:07;;;;;;;11.60;6.73;;;;;;;13.40;49.35;99954.38;5048452;28;20862;-76
2023/04/14 07:25:35;;;;;;;13.82;7.13;;;;;;;13.43;49.11;99961.94;5031916;28;20440;-76
2023/04/14 07:28:01;;;;;;;13.60;7.20;;;;;;;13.50;48.84;99975.25;5032701;28;20382;-77
2023/04/14 07:30:27;;;;;;;13.45;7.35;;;;;;;13.50;48.80;99969.91;5032379;28;20414;-76
2023/04/14 07:32:52;;;;;;;14.25;7.25;;;;;;;13.55;48.66;99976.25;5032745;28;20473;-77
2023/04/14 07:35:18;;;;;;;11.40;7.10;;;;;;;13.50;49.08;99978.72;5032602;28;20382;-76
2023/04/14 07:37:43;;;;;;;14.20;7.17;;;;;;;13.45;49.30;99980.34;5033963;28;20410;-77
2023/04/14 07:40:09;;;;;;;10.80;7.00;;;;;;;13.53;49.37;99993.47;5051227;28;20391;-78
2023/04/14 07:42:35;;;;;;;13.33;7.03;;;;;;;13.65;48.80;99986.50;5053310;28;20380;-77
2023/04/14 07:45:02;;;;;;;10.70;6.57;;;;;;;13.68;48.90;99991.38;5052852;28;20376;-77
2023/04/14 07:47:28;;;;;;;10.23;6.70;;;;;;;13.62;48.71;99972.78;5053446;28;20381;-76
2023/04/14 07:49:55;;;;;;;10.23;6.40;;;;;;;13.51;49.01;99983.03;5052367;28;20720;-76
2023/04/14 07:52:21;;;;;;;12.15;7.13;;;;;;;13.44;49.55;99978.75;5052201;28;20408;-77
2023/04/14 07:54:47;;;;;;;11.10;7.38;;;;;;;13.60;49.49;99991.63;5052631;28;20849;-75
2023/04/14 07:57:13;;;;;;;11.63;7.03;;;;;;;13.78;48.88;99988.31;5051870;28;20372;-76
2023/04/14 07:59:41;;;;;;;15.43;7.72;;;;;;;13.84;49.01;99976.78;5052942;28;20377;-77
2023/04/14 08:02:07;;;;;;;13.77;7.53;;;;;;;13.85;48.97;99964.31;5045790;28;20875;-77
2023/04/14 08:04:33;;;;;;;16.25;7.68;;;;;;;13.88;49.03;99954.06;5040273;28;20374;-76
2023/04/14 08:06:58;;;;;;;15.43;7.25;;;;;;;13.89;49.12;99949.53;5039645;28;20445;-75
2023/04/14 08:09:24;;;;;;;15.00;7.33;;;;;;;13.95;49.10;99951.34;5043853;28;20369;-75
2023/04/14 08:11:49;;;;;;;12.90;7.30;;;;;;;14.03;48.69;99953.78;5041361;28;20402;-76
2023/04/14 08:14:15;;;;;;;15.47;7.03;;;;;;;14.07;48.66;99955.00;5041485;28;20394;-75
2023/04/14 08:16:40;;;;;;;13.70;7.05;;;;;;;14.13;48.74;99970.16;5047205;28;20369;-77
2023/04/14 08:19:06;;;;;;;13.57;6.67;;;;;;;14.15;48.72;99953.94;5046801;28;20393;-77
2023/04/14 08:21:32;;;;;;;11.95;6.95;;;;;;;14.07;48.62;99955.00;5052911;28;20366;-76
2023/04/14 08:23:57;;;;;;;14.48;7.28;;;;;;;14.10;48.83;99964.44;5047177;28;20380;-76
2023/04/14 08:26:23;;;;;;;11.63;7.40;;;;;;;14.20;48.70;99972.78;5052829;28;20476;-78
2023/04/14 08:28:48;;;;;;;16.33;7.47;;;;;;;14.28;48.57;99963.75;5050194;28;20393;-76
2023/04/14 08:31:14;;;;;;;23.33;13.40;;;;;;;14.40;48.42;99963.88;5037599;28;20403;-76
2023/04/14 08:33:39;;;;;;;17.10;7.90;;;;;;;14.47;47.96;99976.13;5046091;28;20389;-76
2023/04/14 08:36:05;;;;;;;14.98;7.30;;;;;;;14.28;48.48;99972.53;5053582;28;20425;-77
2023/04/14 08:38:31;;;;;;;17.50;8.45;;;;;;;14.35;48.21;99983.19;5054724;28;20755;-75
2023/04/14 08:41:00;;;;;;;15.53;7.83;;;;;;;14.58;48.03;99998.66;5053113;28;20832;-77
2023/04/14 08:43:25;;;;;;;12.63;7.90;;;;;;;14.68;47.55;100011.56;5054516;28;20413;-77
2023/04/14 08:45:52;;;;;;;16.53;9.23;;;;;;;14.66;47.64;100010.94;5054336;28;20869;-76
2023/04/14 08:48:26;;;;;;;13.25;8.10;;;;;;;14.63;47.66;100011.38;5054290;28;20384;-77
2023/04/14 08:51:05;;;;;;;14.98;8.30;;;;;;;14.64;47.56;100003.16;5057099;28;20413;-77
2023/04/14 08:53:32;;;;;;;18.73;9.88;;;;;;;14.72;47.35;99994.06;5037047;28;20436;-76
2023/04/14 08:56:01;;;;;;;16.52;8.50;;;;;;;14.79;47.14;99986.03;5054495;28;20373;-78
2023/04/14 08:58:27;;;;;;;15.57;8.55;;;;;;;14.88;46.90;99990.06;5054402;28;20380;-77
2023/04/14 09:00:54;;;;;;;19.65;8.43;;;;;;;14.86;47.16;100006.28;5054455;28;20377;-77
2023/04/14 09:03:20;;;;;;;18.38;8.73;;;;;;;14.74;47.06;99981.34;5054416;28;20373;-76
2023/04/14 09:05:46;;;;;;;15.18;8.23;;;;;;;14.80;47.15;99995.66;5053771;28;20381;-76
2023/04/14 09:08:12;;;;;;;18.00;8.52;;;;;;;14.83;47.03;99979.22;5056273;28;20377;-76
2023/04/14 09:10:39;;;;;;;15.95;8.30;;;;;;;15.00;46.58;99984.84;5050734;28;20408;-76
2023/04/14 09:13:07;;;;;;;13.10;8.52;;;;;;;15.06;46.36;99998.16;5051438;28;20389;-76
2023/04/14 09:15:34;;;;;;;13.15;8.27;;;;;;;15.05;46.51;100033.06;5049232;28;20368;-77
2023/04/14 09:18:00;;;;;;;19.23;9.68;;;;;;;15.12;46.91;100124.59;5039298;28;20393;-76
2023/04/14 09:20:25;;;;;;;20.45;8.80;;;;;;;15.01;46.96;100173.31;5060310;28;20379;-76
2023/04/14 09:22:52;;;;;;;16.07;8.43;;;;;;;14.87;47.77;100183.22;5032543;28;20869;-77
2023/04/14 09:25:18;;;;;;;16.70;7.85;;;;;;;14.90;47.55;100182.81;5037403;28;20396;-76
2023/04/14 09:27:44;;;;;;;20.55;8.88;;;;;;;14.97;47.45;100164.91;5052116;28;20452;-77
2023/04/14 09:30:10;;;;;;;17.75;9.80;;;;;;;14.88;47.43;100118.97;5052589;28;20550;-76
2023/04/14 09:32:37;;;;;;;15.88;10.13;;;;;;;14.76;47.25;100090.50;5052492;28;20899;-76
2023/04/14 09:35:03;;;;;;;17.35;9.40;;;;;;;14.73;47.36;100091.75;5051859;28;20376;-77
2023/04/14 09:37:41;;;;;;;11.93;8.05;;;;;;;14.87;47.01;100088.00;5052927;28;20377;-77
2023/04/14 09:40:07;;;;;;;12.50;8.20;;;;;;;14.92;47.00;100098.00;5068233;28;20380;-77
2023/04/14 09:42:41;;;;;;;15.80;8.30;;;;;;;14.91;46.95;100097.22;5053407;28;20361;-77
2023/04/14 09:45:08;;;;;;;15.00;8.10;;;;;;;14.97;46.78;100092.88;5058335;28;20886;-76
2023/04/14 09:47:34;;;;;;;18.00;8.68;;;;;;;14.93;46.86;100114.84;5032391;28;20382;-76
2023/04/14 09:50:04;;;;;;;12.77;7.40;;;;;;;14.94;46.78;100119.97;5042173;28;20455;-77
2023/04/14 09:52:38;;;;;;;12.10;7.25;;;;;;;14.88;46.93;100105.63;5052584;28;21632;-76
2023/04/14 09:55:10;;;;;;;15.18;7.40;;;;;;;14.97;46.68;100100.06;5052079;28;20427;-77
2023/04/14 09:57:37;;;;;;;10.27;7.37;;;;;;;14.84;47.03;100103.63;5039364;28;20403;-76
2023/04/14 10:00:16;;;;;;;14.23;9.48;;;;;;;14.95;46.91;100120.81;5053070;28;20385;-77
2023/04/14 10:02:50;;;;;;;16.95;12.52;;;;;;;15.19;46.88;100129.91;5039992;28;20912;-78
2023/04/14 10:05:19;;;;;;;15.90;9.27;;;;;;;14.96;46.81;100114.41;5051107;28;20391;-76
2023/04/14 10:07:45;;;;;;;15.77;9.25;;;;;;;15.03;47.12;100116.00;5041198;28;20888;-77
2023/04/14 10:10:12;;;;;;;14.07;9.98;;;;;;;15.05;46.56;100115.81;5050826;28;20762;-76
2023/04/14 10:12:41;;;;;;;13.93;8.30;;;;;;;15.01;46.72;100123.41;5042657;28;20414;-78
2023/04/14 10:15:09;;;;;;;17.30;9.07;;;;;;;14.98;46.55;100142.56;5051937;28;20773;-78
2023/04/14 10:17:36;;;;;;;13.43;7.78;;;;;;;14.86;46.62;100136.25;5051683;28;20381;-76
2023/04/14 10:20:02;;;;;;;19.98;10.07;;;;;;;14.82;46.85;100146.53;5052745;28;20380;-77
2023/04/14 10:22:28;;;;;;;12.38;7.65;;;;;;;14.75;46.94;100152.88;5052087;28;20388;-77
2023/04/14 10:24:55;;;;;;;16.25;7.88;;;;;;;14.67;46.82;100168.09;5051589;28;20414;-76
2023/04/14 10:27:21;;;;;;;14.77;7.00;;;;;;;14.48;47.23;100179.63;5056804;28;20380;-77
2023/04/14 10:29:47;;;;;;;14.02;7.50;;;;;;;14.39;47.74;100186.22;5065097;28;20388;-75
2023/04/14 10:32:16;;;;;;;12.30;6.90;;;;;;;14.40;47.69;100188.66;5065010;28;20526;-76
2023/04/14 10:35:04;;;;;;;14.35;8.00;;;;;;;14.70;47.07;100174.88;5064248;28;20400;-76
2023/04/14 10:37:30;;;;;;;15.13;8.30;;;;;;;14.71;47.22;100181.84;5059974;28;20399;-77
2023/04/14 10:39:58;;;;;;;18.10;8.90;;;;;;;14.74;47.22;100183.28;5053813;28;20376;-77
2023/04/14 10:42:24;;;;;;;21.85;8.82;;;;;;;14.71;47.07;100176.50;5053298;28;20373;-77
2023/04/14 10:45:06;;;;;;;16.33;6.57;;;;;;;14.44;47.91;100165.06;5050976;28;20867;-76
2023/04/14 10:47:34;;;;;;;15.55;7.43;;;;;;;14.44;48.24;100162.41;5051680;28;20385;-78
2023/04/14 10:50:11;;;;;;;17.55;7.85;;;;;;;14.52;48.35;100160.31;5052400;28;20446;-76
2023/04/14 10:52:37;;;;;;;16.73;7.85;;;;;;;14.61;48.94;100154.81;5050393;28;20892;-77
2023/04/14 10:55:06;;;;;;;15.68;7.85;;;;;;;14.59;49.00;100144.34;5036771;28;20484;-79
2023/04/14 10:57:39;;;;;;;22.10;8.60;;;;;;;14.57;49.16;100154.38;5044310;28;20377;-76
2023/04/14 11:00:20;;;;;;;17.05;8.38;;;;;;;14.63;49.44;100168.75;5036360;28;20378;-79
2023/04/14 11:02:57;;;;;;;19.67;8.13;;;;;;;14.69;49.26;100163.41;5042229;28;20384;-77
2023/04/14 11:05:23;;;;;;;14.73;7.93;;;;;;;14.79;49.51;100149.59;5032837;28;20394;-77
2023/04/14 11:07:54;;;;;;;19.38;9.50;;;;;;;14.69;49.75;100134.06;5041870;28;20565;-76
2023/04/14 11:10:20;;;;;;;16.10;8.40;;;;;;;14.58;49.84;100115.22;5040672;28;20759;-75
2023/04/14 11:13:02;;;;;;;20.23;9.00;;;;;;;14.44;50.41;100128.56;5034529;28;20401;-77
2023/04/14 11:15:47;;;;;;;16.90;8.60;;;;;;;14.47;50.51;100141.47;5031807;28;20390;-77
2023/04/14 11:18:19;;;;;;;17.13;8.65;;;;;;;14.42;50.83;100132.47;5037999;28;20361;-79
2023/04/14 11:20:45;;;;;;;21.02;9.27;;;;;;;14.41;50.85;100136.97;5037781;28;20391;-76
2023/04/14 11:23:12;;;;;;;19.30;9.20;;;;;;;14.49;50.57;100139.41;5037815;28;20382;-79